Susank, Kansas
Current Conditions -  °F | °C
As of 12:35 PM on Thursday 30 Oct 2014 (Local Time) from KGBD Reporting Station
Clear Clear  
Wind Chill: 66°   Ceiling: Unl
Heat Index: 66°   Visibility: 10mi
Dew Point: 37°   Wind: 18mph
Humidity: 35%   Direction: 360°N
Pressure: 30.21"   Gusts: NA
Location:  38.6086°N, 98.8666°W
Report Text: KGBD 301735Z AUTO 36016KT 10SM CLR 19/03 A3021 RMK AO1
Loading
Personal Weather Stations






























Interactive Weather Map
Tropical Storm Tracking
New forecast layout! Learn more

10-Day Weather Forecast

Advertisements
Track Severe Weather on mobile